x

Matinicus Rock, Me (mism1) Weather Station

3:00am - Sun 20th Aug 2017 All times are EDT. -4 hours from GMT.

  • Wind
    11mph, 11mph gusts
  • Air Temp 63°f
  • Sea Pressure 1008.8mb
  • Matinicus Rock, Me
  • Matinicus Rock, Me

More Historic Weather Station data

Upgrade to MSW Pro to gain access to the past 30 days of data for over 8000 Wavebouys and Weather Stations around the globe.

Join

Comparision Forecast

View Surf forecast
   
Sun 08/20 3:00am 11 11 mph 1008.8mb 63f
2:00am 10 11 mph 1009.1mb 63f
1:00am 9 9 mph 1009.5mb 61f
12:00am 11 11 mph 1009.7mb 60f
Sat 08/19 11:00pm 8 8 mph 1009.6mb 60f
10:00pm 7 8 mph 1009.6mb 61f
9:00pm 14 14 mph 1009.5mb 61f
8:00pm 9 9 mph 1009mb 62f
7:00pm 8 9 mph 1008.5mb 61f
6:00pm 9 9 mph 1008.1mb 62f
5:00pm 8 8 mph 1008.7mb 60f
4:00pm 7 8 mph 1008.5mb 61f
3:00pm 7 8 mph 1008.3mb 60f
2:00pm  -  1 mph 1008.4mb 63f
1:00pm  -  2 mph 1008.6mb 62f
12:00pm 9 10 mph 1008.4mb 61f
11:00am 9 9 mph 1008.7mb 60f
10:00am 10 11 mph 1008.4mb 59f
9:00am 5 5 mph 1008.1mb 60f
8:00am 6 7 mph 1008.2mb 59f
7:00am 6 6 mph 1008.2mb 60f
6:00am 18 20 mph 1007.9mb 65f
5:00am 17 17 mph 1007.5mb 64f
4:00am 14 14 mph 1007.7mb 63f
3:00am 10 10 mph 1008.2mb 62f
2:00am 22 23 mph 1008.6mb 60f
1:00am 29 30 mph 1009.2mb 61f
12:00am 32 34 mph 1010.1mb 63f
Fri 08/18 11:00pm 30 32 mph 1010.5mb 60f
10:00pm 34 39 mph 1011.1mb 61f
9:00pm 31 33 mph 1011.3mb 60f
8:00pm 33 36 mph 1011.7mb 59f
6:00pm 28 29 mph 1012.9mb 58f
5:00pm 17 18 mph 1013.4mb 58f
4:00pm 18 20 mph 1013.9mb 59f
3:00pm 11 13 mph 1014.8mb 61f
2:00pm 10 11 mph 1014.9mb 60f
1:00pm 8 9 mph 1015.3mb 60f
12:00pm 7 8 mph 1015.6mb 61f
11:00am 9 10 mph 1015.1mb 60f
10:00am 10 11 mph 1015.2mb 61f
9:00am 11 11 mph 1014.9mb 61f
8:00am 11 13 mph 1014.9mb 61f
7:00am 8 9 mph 1014.8mb 59f
6:00am 9 9 mph 1014.8mb 61f
5:00am 9 9 mph 1014.9mb 61f
4:00am 11 11 mph 1014.8mb 64f
3:00am 11 11 mph 1014.7mb 64f
2:00am 9 9 mph 1015mb 65f
1:00am 10 10 mph 1015.1mb 66f
12:00am 10 10 mph 1014.9mb 65f
Thu 08/17 11:00pm 13 13 mph 1015mb 63f
10:00pm 14 14 mph 1014.8mb 67f
9:00pm 20 20 mph 1014.4mb 65f
8:00pm 15 16 mph 1013.8mb 63f
7:00pm 18 18 mph 1013.5mb 63f
6:00pm 22 22 mph 1013.1mb 63f
5:00pm 21 22 mph 1012.8mb 63f
4:00pm 20 21 mph 1013mb 62f
3:00pm 18 20 mph 1013.4mb 62f
2:00pm 18 18 mph 1013.8mb 62f
1:00pm 15 16 mph 1014.2mb 60f
12:00pm 17 18 mph 1014.5mb 60f
11:00am 18 20 mph 1015mb 60f
10:00am 16 17 mph 1015.5mb 61f
9:00am 17 18 mph 1015.4mb 60f
8:00am 20 20 mph 1015.4mb 60f
7:00am 20 21 mph 1015.3mb 59f
6:00am 17 17 mph 1014.6mb 59f
5:00am 18 20 mph 1014.4mb 59f
4:00am 15 15 mph 1014.4mb 59f
3:00am 14 14 mph 1014.3mb 59f
2:00am 16 16 mph 1014.2mb 60f
1:00am 14 15 mph 1014.4mb 60f
12:00am 16 16 mph 1014.6mb 62f
Wed 08/16 11:00pm 14 14 mph 1014.7mb 63f
10:00pm 18 18 mph 1014.1mb 65f
9:00pm 18 18 mph 1013.7mb 66f
8:00pm 18 20 mph 1012.7mb 67f
7:00pm 14 15 mph 1011.9mb 66f
6:00pm 9 10 mph 1011.4mb 71f
5:00pm 16 16 mph 1011.3mb 70f
4:00pm 5 6 mph 1011.2mb 67f
3:00pm 9 10 mph 1011.3mb 68f
2:00pm 9 9 mph 1011.3mb 67f
1:00pm 8 9 mph 1011.3mb 65f
12:00pm  -  2 mph 1011.5mb 67f
11:00am 2 2 mph 1011.6mb 65f
10:00am 5 6 mph 1011.5mb 63f
9:00am 7 8 mph 1011.4mb 61f